Time;durP1;ratioP1;P1;durP2;ratioP2;P2;SDS_P1;SDS_P2;PMS_P1;PMS_P2;Temp;Humidity;BMP_temperature;BMP_pressure;BME280_temperature;BME280_humidity;BME280_pressure;Samples;Min_cycle;Max_cycle;Signal;HPM_P1;HPM_P2
2021/11/13 00:01:34;;;;;;;51.88;24.52;;;;;;;5.99;100.00;98198.94;4979850;28;20016;-71
2021/11/13 00:03:59;;;;;;;52.05;25.45;;;;;;;6.07;100.00;98190.34;4979773;28;20011;-71
2021/11/13 00:06:25;;;;;;;55.83;25.17;;;;;;;6.00;100.00;98184.28;4979635;28;20063;-71
2021/11/13 00:08:51;;;;;;;56.05;24.33;;;;;;;6.05;100.00;98173.47;4979406;28;20115;-72
2021/11/13 00:11:16;;;;;;;56.42;24.45;;;;;;;6.04;100.00;98169.97;4979785;29;20027;-72
2021/11/13 00:13:42;;;;;;;58.47;24.05;;;;;;;6.06;100.00;98185.97;4979432;28;20015;-72
2021/11/13 00:16:08;;;;;;;59.88;25.58;;;;;;;6.18;100.00;98176.56;4979493;28;20015;-73
2021/11/13 00:18:37;;;;;;;58.78;26.08;;;;;;;6.16;100.00;98173.28;4979601;28;20034;-71
2021/11/13 00:21:06;;;;;;;56.83;24.45;;;;;;;6.09;100.00;98178.13;4979413;28;20033;-73
2021/11/13 00:23:32;;;;;;;53.47;23.55;;;;;;;6.17;100.00;98180.34;4979502;28;20020;-73
2021/11/13 00:25:58;;;;;;;52.67;23.17;;;;;;;6.19;100.00;98180.09;4979872;28;20022;-74
2021/11/13 00:28:26;;;;;;;57.45;23.23;;;;;;;6.06;100.00;98189.50;4979544;28;20014;-72
2021/11/13 00:30:51;;;;;;;53.90;22.58;;;;;;;5.98;100.00;98192.72;4979431;28;20023;-71
2021/11/13 00:33:17;;;;;;;57.08;22.75;;;;;;;6.04;100.00;98183.53;4979526;28;20059;-71
2021/11/13 00:35:42;;;;;;;50.67;21.67;;;;;;;5.97;100.00;98174.78;4962882;29;20015;-72
2021/11/13 00:38:08;;;;;;;57.45;23.95;;;;;;;5.97;100.00;98165.81;4979491;28;20019;-71
2021/11/13 00:40:33;;;;;;;51.65;23.77;;;;;;;5.96;100.00;98151.41;4979340;28;20011;-71
2021/11/13 00:42:59;;;;;;;50.70;22.33;;;;;;;5.97;100.00;98169.34;4979256;28;20011;-74
2021/11/13 00:45:24;;;;;;;56.47;23.08;;;;;;;6.07;100.00;98164.00;4979159;28;20039;-74
2021/11/13 00:47:50;;;;;;;54.17;23.25;;;;;;;6.02;100.00;98154.97;4979112;28;20011;-72
2021/11/13 00:50:15;;;;;;;51.38;23.30;;;;;;;6.07;100.00;98158.56;4979296;28;20017;-71
2021/11/13 00:52:41;;;;;;;51.28;22.73;;;;;;;6.13;100.00;98162.97;4978547;28;20041;-77
2021/11/13 00:55:09;;;;;;;52.75;21.80;;;;;;;6.20;100.00;98152.66;4978902;28;20019;-74
2021/11/13 00:57:35;;;;;;;53.95;22.10;;;;;;;6.16;100.00;98148.03;4979282;28;20048;-73
2021/11/13 01:00:01;;;;;;;48.63;21.38;;;;;;;6.13;100.00;98152.09;4978882;28;20043;-76
2021/11/13 01:02:27;;;;;;;49.10;21.05;;;;;;;6.11;100.00;98148.00;4978916;28;20015;-72
2021/11/13 01:04:52;;;;;;;46.72;20.27;;;;;;;6.15;100.00;98149.91;4984533;28;20038;-72
2021/11/13 01:07:18;;;;;;;51.25;20.67;;;;;;;6.14;100.00;98145.56;4978663;28;20051;-74
2021/11/13 01:09:43;;;;;;;49.55;20.83;;;;;;;6.10;100.00;98144.47;4979275;28;20031;-75
2021/11/13 01:12:09;;;;;;;43.78;18.80;;;;;;;6.02;100.00;98144.94;4977938;28;20018;-81
2021/11/13 01:14:40;;;;;;;44.25;20.80;;;;;;;6.01;100.00;98143.34;4977225;28;20026;-75
2021/11/13 01:17:11;;;;;;;43.28;19.75;;;;;;;6.10;100.00;98139.03;4978926;28;20050;-71
2021/11/13 01:19:38;;;;;;;41.92;20.13;;;;;;;6.12;100.00;98136.88;4978702;28;20023;-74
2021/11/13 01:22:04;;;;;;;45.97;21.17;;;;;;;6.15;100.00;98138.25;4979086;28;20044;-71
2021/11/13 01:24:29;;;;;;;44.03;19.98;;;;;;;6.14;100.00;98131.19;4978951;28;20008;-72
2021/11/13 01:26:55;;;;;;;45.10;21.48;;;;;;;6.17;100.00;98126.03;4981846;28;20042;-72
2021/11/13 01:29:20;;;;;;;43.40;19.20;;;;;;;6.20;100.00;98120.06;4988795;28;20034;-72
2021/11/13 01:31:47;;;;;;;43.25;18.48;;;;;;;6.22;100.00;98112.50;5001863;28;20074;-72
2021/11/13 01:34:13;;;;;;;43.83;19.45;;;;;;;6.23;100.00;98111.44;4985041;28;20026;-74
2021/11/13 01:36:38;;;;;;;49.25;20.17;;;;;;;6.23;100.00;98106.00;5001745;28;20011;-72
2021/11/13 01:39:04;;;;;;;44.70;20.98;;;;;;;6.27;100.00;98109.78;5002006;28;20006;-73
2021/11/13 01:41:30;;;;;;;43.00;20.42;;;;;;;6.31;100.00;98100.03;5001576;28;20035;-74
2021/11/13 01:43:55;;;;;;;43.92;19.25;;;;;;;6.30;100.00;98109.28;5001553;28;20075;-75
2021/11/13 01:46:21;;;;;;;46.63;21.83;;;;;;;6.34;100.00;98104.13;5001550;28;20010;-73
2021/11/13 01:48:46;;;;;;;39.60;18.42;;;;;;;6.33;100.00;98100.59;5001437;28;20015;-72
2021/11/13 01:51:21;;;;;;;47.00;20.08;;;;;;;6.31;100.00;98094.63;5001424;28;20039;-73
2021/11/13 01:53:48;;;;;;;50.72;20.77;;;;;;;6.33;100.00;98091.63;5001203;28;20015;-74
2021/11/13 01:56:19;;;;;;;39.75;19.77;;;;;;;6.30;100.00;98084.81;5001166;28;20033;-73
2021/11/13 01:58:48;;;;;;;42.42;20.50;;;;;;;6.33;100.00;98087.00;5001091;28;20033;-72
2021/11/13 02:01:13;;;;;;;41.28;18.15;;;;;;;6.23;100.00;98081.56;5001099;28;20027;-73
2021/11/13 02:03:40;;;;;;;38.00;19.58;;;;;;;6.34;100.00;98082.41;5001161;28;20022;-72
2021/11/13 02:06:06;;;;;;;41.53;18.95;;;;;;;6.31;100.00;98077.50;5001001;28;20083;-74
2021/11/13 02:08:32;;;;;;;42.42;19.45;;;;;;;6.35;100.00;98076.72;5001368;28;20042;-73
2021/11/13 02:10:57;;;;;;;38.65;18.65;;;;;;;6.38;100.00;98073.47;5001095;28;20010;-72
2021/11/13 02:13:23;;;;;;;41.70;18.73;;;;;;;6.32;100.00;98068.28;5000945;28;20039;-76
2021/11/13 02:15:48;;;;;;;41.60;20.52;;;;;;;6.36;100.00;98064.75;5000807;28;20041;-73
2021/11/13 02:18:14;;;;;;;52.08;23.33;;;;;;;6.35;100.00;98067.75;5000963;28;20007;-72
2021/11/13 02:20:42;;;;;;;54.13;23.98;;;;;;;6.39;100.00;98058.00;5000952;28;20003;-73
2021/11/13 02:23:18;;;;;;;47.20;23.27;;;;;;;6.26;100.00;98053.88;5000628;28;20034;-72
2021/11/13 02:25:45;;;;;;;57.60;24.77;;;;;;;6.17;100.00;98047.28;5000660;28;20030;-70
2021/11/13 02:28:13;;;;;;;58.28;23.15;;;;;;;6.17;100.00;98047.28;5000775;28;20066;-72
2021/11/13 02:30:39;;;;;;;48.70;22.73;;;;;;;6.07;100.00;98044.53;5000825;28;20055;-72
2021/11/13 02:33:08;;;;;;;52.30;21.98;;;;;;;6.09;100.00;98036.09;5000714;28;20014;-72
2021/11/13 02:35:35;;;;;;;50.33;22.65;;;;;;;6.04;100.00;98047.78;5000447;28;20039;-72
2021/11/13 02:38:12;;;;;;;42.78;20.38;;;;;;;6.05;100.00;98043.97;4999598;28;20007;-73
2021/11/13 02:40:40;;;;;;;48.97;21.27;;;;;;;6.06;100.00;98042.91;5000722;28;20007;-72
2021/11/13 02:43:06;;;;;;;49.05;21.45;;;;;;;6.02;100.00;98033.63;5000459;28;20053;-71
2021/11/13 02:45:32;;;;;;;46.95;22.33;;;;;;;6.04;100.00;98027.94;5000315;28;20019;-74
2021/11/13 02:48:01;;;;;;;50.00;21.38;;;;;;;6.07;100.00;98030.97;5000402;28;20021;-72
2021/11/13 02:50:26;;;;;;;47.08;21.60;;;;;;;6.07;100.00;98027.44;5000201;28;20038;-72
2021/11/13 02:52:54;;;;;;;49.13;20.65;;;;;;;6.04;100.00;98017.91;5000173;28;20015;-72
2021/11/13 02:55:21;;;;;;;43.97;21.55;;;;;;;6.12;100.00;98030.97;4989556;28;20046;-72
2021/11/13 02:57:48;;;;;;;44.05;20.70;;;;;;;6.13;100.00;98021.75;4980424;28;20019;-73
2021/11/13 03:00:17;;;;;;;43.10;21.63;;;;;;;6.21;100.00;98023.13;4964144;28;20043;-75
2021/11/13 03:02:42;;;;;;;41.75;20.20;;;;;;;6.23;100.00;98016.38;4980750;28;20054;-73
2021/11/13 03:05:29;;;;;;;39.90;19.83;;;;;;;6.22;100.00;98024.78;4980688;28;20015;-72
2021/11/13 03:07:58;;;;;;;36.95;19.08;;;;;;;6.24;100.00;98017.97;4980421;28;20027;-73
2021/11/13 03:10:26;;;;;;;36.55;18.65;;;;;;;6.26;100.00;98013.13;4980973;28;20076;-75
2021/11/13 03:12:52;;;;;;;36.78;17.65;;;;;;;6.32;100.00;98013.94;4980516;28;20051;-73
2021/11/13 03:15:19;;;;;;;33.72;19.25;;;;;;;6.35;100.00;98016.13;4980244;28;20015;-72
2021/11/13 03:17:46;;;;;;;35.80;18.75;;;;;;;6.46;100.00;98010.47;4980445;28;20050;-72
2021/11/13 03:20:16;;;;;;;35.67;18.45;;;;;;;6.41;100.00;98018.59;4980107;28;20011;-73
2021/11/13 03:22:42;;;;;;;40.70;19.33;;;;;;;6.46;100.00;98015.06;4980387;28;20043;-72
2021/11/13 03:25:16;;;;;;;40.15;19.90;;;;;;;6.44;100.00;98015.34;4980356;28;20043;-73
2021/11/13 03:27:46;;;;;;;39.97;19.87;;;;;;;6.22;100.00;98020.16;4980210;28;20015;-74
2021/11/13 03:30:13;;;;;;;43.55;20.33;;;;;;;6.03;100.00;98021.69;4980300;28;20067;-72
2021/11/13 03:32:39;;;;;;;46.15;20.83;;;;;;;6.00;100.00;98018.69;4980074;28;20015;-72
2021/11/13 03:35:06;;;;;;;37.25;19.75;;;;;;;6.04;100.00;98012.50;4979807;28;20018;-74
2021/11/13 03:37:33;;;;;;;38.42;19.67;;;;;;;5.93;100.00;98011.59;4979944;28;20012;-73
2021/11/13 03:39:59;;;;;;;34.75;18.23;;;;;;;5.94;100.00;98004.28;4980493;28;20015;-75
2021/11/13 03:42:29;;;;;;;39.67;18.88;;;;;;;5.95;100.00;98007.81;4963112;28;20011;-77
2021/11/13 03:44:56;;;;;;;36.83;18.90;;;;;;;6.04;100.00;98007.06;4980021;28;20067;-72
2021/11/13 03:47:21;;;;;;;37.00;18.85;;;;;;;6.12;100.00;98008.44;4979930;28;20038;-72
2021/11/13 03:49:47;;;;;;;34.25;18.17;;;;;;;6.10;100.00;98006.00;4979615;28;20027;-72
2021/11/13 03:52:13;;;;;;;34.60;18.83;;;;;;;6.18;100.00;98002.75;4979656;28;20012;-73
2021/11/13 03:54:38;;;;;;;33.05;18.13;;;;;;;6.25;100.00;98008.75;4979750;28;20039;-73
2021/11/13 03:57:05;;;;;;;35.25;19.40;;;;;;;6.12;100.00;98003.81;4995839;28;20017;-75
2021/11/13 03:59:31;;;;;;;34.30;18.80;;;;;;;6.08;100.00;98005.44;4998961;28;20018;-73
2021/11/13 04:01:57;;;;;;;36.00;18.67;;;;;;;6.17;100.00;98001.13;4998939;28;20026;-74
2021/11/13 04:04:22;;;;;;;33.85;17.23;;;;;;;6.13;100.00;97996.50;4997256;28;20015;-74
2021/11/13 04:06:47;;;;;;;36.30;18.48;;;;;;;6.04;100.00;97992.66;4998556;28;20030;-77
2021/11/13 04:09:13;;;;;;;36.75;19.00;;;;;;;6.01;100.00;97988.59;4998235;28;20050;-73
2021/11/13 04:11:38;;;;;;;36.05;18.73;;;;;;;6.05;100.00;98000.53;4998776;28;20082;-74
2021/11/13 04:14:04;;;;;;;33.33;18.35;;;;;;;6.01;100.00;98004.88;4998935;28;20042;-73
2021/11/13 04:16:29;;;;;;;40.83;19.10;;;;;;;5.89;100.00;98004.25;4998840;28;20078;-73
2021/11/13 04:18:55;;;;;;;35.08;18.55;;;;;;;5.90;100.00;97998.56;4998911;28;20026;-75
2021/11/13 04:21:20;;;;;;;36.92;18.58;;;;;;;5.95;100.00;97997.78;4998595;28;20043;-76
2021/11/13 04:23:46;;;;;;;33.75;18.10;;;;;;;6.02;100.00;98001.06;4997690;28;20087;-74
2021/11/13 04:26:12;;;;;;;36.47;18.05;;;;;;;6.02;100.00;98000.22;4998346;28;20007;-77
2021/11/13 04:28:38;;;;;;;31.85;18.20;;;;;;;6.08;100.00;97997.28;4998671;28;20015;-72
2021/11/13 04:31:04;;;;;;;34.63;18.63;;;;;;;6.07;100.00;98005.69;4982298;28;20041;-74
2021/11/13 04:33:30;;;;;;;34.78;17.60;;;;;;;6.09;100.00;98012.50;4984292;28;20019;-71
2021/11/13 04:38:40;;;;;;;35.28;18.85;;;;;;;6.11;100.00;98002.19;4998896;28;20048;-75
2021/11/13 04:41:07;;;;;;;33.25;18.17;;;;;;;6.20;100.00;98000.56;4998672;28;20023;-73
2021/11/13 04:43:33;;;;;;;31.38;16.80;;;;;;;6.17;100.00;98001.13;4998582;28;20027;-72
2021/11/13 04:46:00;;;;;;;35.80;17.88;;;;;;;6.25;100.00;98002.50;4981833;28;20023;-72
2021/11/13 04:48:25;;;;;;;32.78;17.58;;;;;;;6.37;100.00;98009.34;4998464;28;20019;-72
2021/11/13 04:50:51;;;;;;;37.20;18.80;;;;;;;6.33;100.00;98004.69;4995849;28;20046;-81
2021/11/13 04:53:16;;;;;;;42.90;20.58;;;;;;;6.29;100.00;98009.88;4996631;28;20030;-79
2021/11/13 04:55:42;;;;;;;35.67;19.70;;;;;;;6.42;100.00;98006.63;4997706;28;20022;-71
2021/11/13 04:58:07;;;;;;;39.47;20.67;;;;;;;6.38;100.00;98005.56;4998322;28;20042;-74
2021/11/13 05:00:35;;;;;;;43.92;19.58;;;;;;;6.33;100.00;98007.41;4998943;28;20018;-72
2021/11/13 05:03:00;;;;;;;43.10;21.55;;;;;;;6.37;100.00;98005.81;4995029;28;20054;-78
2021/11/13 05:05:28;;;;;;;46.95;21.23;;;;;;;6.24;100.00;98009.84;4992169;28;20035;-79
2021/11/13 05:07:54;;;;;;;51.20;21.83;;;;;;;6.28;100.00;98002.81;4988202;28;20078;-80
2021/11/13 05:10:20;;;;;;;50.42;21.98;;;;;;;6.29;100.00;98007.16;4987997;28;20031;-80
2021/11/13 05:12:47;;;;;;;49.08;22.70;;;;;;;6.31;100.00;98004.97;4988680;28;20039;-79
2021/11/13 05:15:12;;;;;;;51.65;23.73;;;;;;;6.27;100.00;98006.59;4979526;29;20024;-80
2021/11/13 05:17:38;;;;;;;50.13;22.13;;;;;;;6.24;100.00;98006.31;4977797;29;20029;-80
2021/11/13 05:20:08;;;;;;;57.53;23.42;;;;;;;6.23;100.00;98020.97;4976829;29;20095;-80
2021/11/13 05:22:38;;;;;;;51.05;23.17;;;;;;;6.34;100.00;98012.59;4984679;28;20050;-80
2021/11/13 05:25:07;;;;;;;53.70;21.85;;;;;;;6.26;100.00;98015.84;4989547;28;20038;-78
2021/11/13 05:27:32;;;;;;;55.42;23.10;;;;;;;6.29;100.00;98012.59;4971660;28;20051;-79
2021/11/13 05:29:58;;;;;;;47.53;21.50;;;;;;;6.27;100.00;98020.16;4973539;29;20027;-79
2021/11/13 05:32:24;;;;;;;52.08;23.02;;;;;;;6.31;100.00;98018.56;4968364;29;20031;-79
2021/11/13 05:34:49;;;;;;;52.92;20.70;;;;;;;6.23;100.00;98016.38;4965638;29;20369;-78
2021/11/13 05:37:15;;;;;;;40.42;20.60;;;;;;;6.23;100.00;98016.38;4967052;29;20023;-79
2021/11/13 05:39:40;;;;;;;49.47;22.17;;;;;;;6.27;100.00;98011.19;4964910;29;20026;-80
2021/11/13 05:42:06;;;;;;;46.33;21.27;;;;;;;6.23;100.00;98013.66;4961849;29;20031;-79
2021/11/13 05:44:32;;;;;;;40.85;18.98;;;;;;;6.22;100.00;98013.91;4963547;28;20022;-78
2021/11/13 05:46:57;;;;;;;44.45;20.27;;;;;;;6.23;100.00;98024.53;4966993;28;20034;-78
2021/11/13 05:49:23;;;;;;;44.72;19.98;;;;;;;6.25;100.00;98016.09;4950968;29;20031;-80
2021/11/13 05:51:50;;;;;;;40.33;18.85;;;;;;;6.24;100.00;98007.13;4965083;29;20368;-77
2021/11/13 05:54:15;;;;;;;48.53;19.42;;;;;;;6.24;100.00;98015.28;4972060;28;20038;-79
2021/11/13 05:56:40;;;;;;;43.40;19.95;;;;;;;6.21;100.00;98018.50;4984076;28;20537;-78
2021/11/13 05:59:06;;;;;;;40.50;18.13;;;;;;;6.22;100.00;98003.88;4967473;28;20037;-77
2021/11/13 06:01:31;;;;;;;39.90;19.17;;;;;;;6.26;100.00;98018.56;4983753;28;20815;-79
2021/11/13 06:03:57;;;;;;;36.33;18.05;;;;;;;6.33;100.00;98013.66;4982852;28;20055;-78
2021/11/13 06:06:23;;;;;;;37.55;18.38;;;;;;;6.36;100.00;98015.84;4979801;28;20043;-78
2021/11/13 06:08:48;;;;;;;32.30;17.17;;;;;;;6.40;100.00;98013.41;4973024;28;20483;-79
2021/11/13 06:11:13;;;;;;;34.47;17.23;;;;;;;6.38;100.00;98019.13;4972801;28;20122;-80
2021/11/13 06:13:39;;;;;;;35.05;17.05;;;;;;;6.46;100.00;98015.88;4972051;28;20028;-78
2021/11/13 06:16:08;;;;;;;32.88;16.88;;;;;;;6.54;100.00;98028.16;4966267;29;20039;-78
2021/11/13 06:18:34;;;;;;;35.30;16.80;;;;;;;6.53;100.00;98031.94;4967858;28;20031;-79
2021/11/13 06:21:00;;;;;;;35.10;18.40;;;;;;;6.48;100.00;98035.44;4977711;28;20030;-79
2021/11/13 06:23:26;;;;;;;33.22;17.65;;;;;;;6.43;100.00;98031.91;4975691;28;20095;-79
2021/11/13 06:25:51;;;;;;;30.80;16.52;;;;;;;6.46;100.00;98039.53;4980163;28;20455;-77
2021/11/13 06:28:16;;;;;;;31.48;16.85;;;;;;;6.50;100.00;98037.09;4979221;28;20042;-79
2021/11/13 06:30:42;;;;;;;32.20;17.05;;;;;;;6.46;100.00;98039.53;4961213;28;20030;-78
2021/11/13 06:33:07;;;;;;;37.75;18.63;;;;;;;6.52;100.00;98033.00;4980140;28;20019;-78
2021/11/13 06:35:33;;;;;;;37.63;19.08;;;;;;;6.52;100.00;98041.16;4977338;28;20162;-80
2021/11/13 06:37:58;;;;;;;42.00;21.45;;;;;;;6.49;100.00;98038.97;4977764;28;20395;-78
2021/11/13 06:40:24;;;;;;;33.67;17.65;;;;;;;6.43;100.00;98040.88;4983036;28;20019;-78
2021/11/13 06:42:49;;;;;;;42.50;18.88;;;;;;;6.52;100.00;98051.22;4980211;28;20027;-78
2021/11/13 06:45:15;;;;;;;33.88;18.75;;;;;;;6.71;100.00;98055.91;4977217;28;20031;-77
2021/11/13 06:47:41;;;;;;;37.97;19.55;;;;;;;6.79;100.00;98049.13;4976948;28;20097;-78
2021/11/13 06:50:08;;;;;;;35.53;19.15;;;;;;;6.87;100.00;98049.41;4977293;28;20138;-78
2021/11/13 06:52:33;;;;;;;31.60;17.67;;;;;;;6.94;100.00;98043.72;4966879;28;20030;-78
2021/11/13 06:54:59;;;;;;;51.75;27.42;;;;;;;6.92;100.00;98048.63;4962441;28;20023;-78
2021/11/13 06:57:25;;;;;;;52.35;30.25;;;;;;;6.87;100.00;98052.13;4970145;28;20538;-78
2021/11/13 06:59:51;;;;;;;39.70;21.15;;;;;;;6.83;100.00;98058.38;4976959;28;20058;-77
2021/11/13 07:02:16;;;;;;;32.88;16.67;;;;;;;6.84;100.00;98054.56;4981003;28;20101;-78
2021/11/13 07:04:42;;;;;;;121.03;69.93;;;;;;;6.77;100.00;98056.72;4973180;28;20380;-78
2021/11/13 07:07:08;;;;;;;63.15;31.50;;;;;;;6.82;100.00;98059.47;4966954;28;20043;-78
2021/11/13 07:09:33;;;;;;;29.85;16.35;;;;;;;6.80;100.00;98065.16;4972976;28;20038;-76
2021/11/13 07:11:59;;;;;;;31.88;16.80;;;;;;;6.88;100.00;98050.25;4976552;28;20515;-76
2021/11/13 07:14:24;;;;;;;29.88;16.58;;;;;;;6.85;100.00;98051.59;4976310;28;20041;-75
2021/11/13 07:16:49;;;;;;;36.72;15.85;;;;;;;6.96;100.00;98066.00;4987855;28;20062;-78
2021/11/13 07:19:15;;;;;;;32.30;16.25;;;;;;;6.97;100.00;98063.03;4996269;28;20368;-78
2021/11/13 07:21:40;;;;;;;30.77;16.92;;;;;;;7.11;100.00;98063.31;4994849;28;20018;-79
2021/11/13 07:24:08;;;;;;;30.42;16.77;;;;;;;7.14;100.00;98065.50;4989432;28;20018;-77
2021/11/13 07:26:34;;;;;;;30.10;16.60;;;;;;;7.15;100.00;98064.41;4982359;28;20035;-79
2021/11/13 07:29:12;;;;;;;30.05;16.70;;;;;;;7.18;100.00;98065.75;4981633;28;20025;-78
2021/11/13 07:31:37;;;;;;;35.22;16.92;;;;;;;7.22;100.00;98067.69;4976594;28;20035;-79
2021/11/13 07:34:03;;;;;;;27.52;15.10;;;;;;;7.25;100.00;98064.44;4971966;28;20641;-79
2021/11/13 07:36:28;;;;;;;33.97;17.10;;;;;;;7.37;100.00;98070.41;4952927;29;20428;-77
2021/11/13 07:38:54;;;;;;;32.13;15.88;;;;;;;7.48;100.00;98065.78;4964544;29;20027;-79
2021/11/13 07:41:23;;;;;;;31.65;17.80;;;;;;;7.57;100.00;98058.72;4962698;29;20480;-78
2021/11/13 07:43:49;;;;;;;29.45;16.05;;;;;;;7.66;100.00;98067.13;4957062;29;20114;-78
2021/11/13 07:46:14;;;;;;;34.75;17.35;;;;;;;7.70;100.00;98054.63;4958887;29;20396;-80
2021/11/13 07:48:39;;;;;;;27.40;15.50;;;;;;;7.76;100.00;98061.69;4960119;29;20111;-79
2021/11/13 07:51:05;;;;;;;30.23;16.10;;;;;;;7.77;100.00;98068.78;4959168;29;20038;-79
2021/11/13 07:53:31;;;;;;;30.25;14.73;;;;;;;7.88;100.00;98065.75;4960189;28;20031;-80
2021/11/13 07:55:57;;;;;;;28.38;15.45;;;;;;;7.89;100.00;98059.19;4965664;28;20037;-79
2021/11/13 07:58:22;;;;;;;32.40;16.40;;;;;;;7.84;100.00;98059.22;4973273;28;20026;-80
2021/11/13 08:00:49;;;;;;;32.38;16.10;;;;;;;7.72;100.00;98060.59;4986662;28;20027;-81
2021/11/13 08:03:16;;;;;;;24.77;14.57;;;;;;;7.76;100.00;98067.97;4994864;28;20021;-81
2021/11/13 08:05:42;;;;;;;29.95;16.27;;;;;;;7.86;100.00;98061.69;4997162;28;20015;-76
2021/11/13 08:08:08;;;;;;;27.58;16.35;;;;;;;7.98;100.00;98064.91;4993341;28;20057;-74
2021/11/13 08:10:41;;;;;;;29.40;16.75;;;;;;;7.88;100.00;98059.47;4998668;28;20003;-74
2021/11/13 08:13:11;;;;;;;33.72;16.98;;;;;;;7.92;100.00;98052.41;4985256;28;20071;-79
2021/11/13 08:15:38;;;;;;;29.73;16.23;;;;;;;7.87;100.00;98064.13;4988752;28;20495;-80
2021/11/13 08:18:04;;;;;;;31.80;15.77;;;;;;;7.77;100.00;98063.34;4985358;28;20034;-78
2021/11/13 08:20:31;;;;;;;30.10;16.73;;;;;;;7.87;100.00;98057.84;4976274;29;20032;-79
2021/11/13 08:22:57;;;;;;;26.38;16.00;;;;;;;7.91;100.00;98075.28;4977361;28;20015;-81
2021/11/13 08:25:23;;;;;;;28.13;16.52;;;;;;;7.84;100.00;98058.41;4977456;29;20023;-81
2021/11/13 08:27:48;;;;;;;31.88;16.95;;;;;;;7.89;100.00;98066.56;4988252;28;20031;-80
2021/11/13 08:30:15;;;;;;;28.63;16.13;;;;;;;7.90;100.00;98066.28;4982340;28;20019;-80
2021/11/13 08:32:41;;;;;;;32.20;16.02;;;;;;;7.83;100.00;98071.19;4974169;29;20389;-80
2021/11/13 08:35:08;;;;;;;31.60;15.40;;;;;;;7.83;100.00;98067.69;4961692;29;20062;-80
2021/11/13 08:37:34;;;;;;;28.52;16.60;;;;;;;7.87;100.00;98076.91;4981902;28;20015;-76
2021/11/13 08:40:00;;;;;;;29.52;16.52;;;;;;;7.90;100.00;98079.91;4988992;28;20019;-80
2021/11/13 08:42:25;;;;;;;26.85;15.88;;;;;;;7.93;100.00;98078.53;5002053;28;20023;-78
2021/11/13 08:44:52;;;;;;;31.88;16.73;;;;;;;8.08;100.00;98073.06;5002369;28;20015;-74
2021/11/13 08:47:18;;;;;;;30.88;16.58;;;;;;;8.13;100.00;98074.94;5002142;28;20009;-80
2021/11/13 08:49:50;;;;;;;32.83;16.20;;;;;;;8.16;100.00;98061.59;4985550;28;20019;-72
2021/11/13 08:52:20;;;;;;;27.80;15.57;;;;;;;8.33;100.00;98083.13;4982666;28;20019;-73
2021/11/13 08:54:48;;;;;;;30.25;17.10;;;;;;;8.34;100.00;98079.28;4989951;28;20046;-82
2021/11/13 08:57:14;;;;;;;27.17;14.70;;;;;;;8.43;100.00;98075.69;4982586;28;20019;-73
2021/11/13 08:59:40;;;;;;;31.60;16.02;;;;;;;8.39;100.00;98071.91;4997576;28;20057;-74
2021/11/13 09:02:10;;;;;;;29.27;16.80;;;;;;;8.39;100.00;98077.38;5002153;28;20031;-72
2021/11/13 09:04:38;;;;;;;28.88;16.75;;;;;;;8.88;100.00;98082.03;5002071;28;20022;-73
2021/11/13 09:07:06;;;;;;;27.30;15.70;;;;;;;9.08;100.00;98079.22;4991422;28;20027;-80
2021/11/13 09:09:35;;;;;;;30.17;15.02;;;;;;;9.12;100.00;98080.25;4981710;28;20022;-80
2021/11/13 09:12:03;;;;;;;34.50;17.02;;;;;;;9.17;100.00;98077.50;4954264;28;20373;-74
2021/11/13 09:14:32;;;;;;;25.98;16.10;;;;;;;9.22;100.00;98082.91;4959733;28;20038;-75
2021/11/13 09:16:58;;;;;;;28.10;15.63;;;;;;;8.97;100.00;98096.72;4965550;28;20170;-78
2021/11/13 09:19:23;;;;;;;28.95;16.42;;;;;;;9.02;100.00;98088.53;4967407;28;20523;-80
2021/11/13 09:21:49;;;;;;;26.65;15.65;;;;;;;9.05;100.00;98087.97;4975108;28;20035;-77
2021/11/13 09:24:14;;;;;;;30.20;15.00;;;;;;;9.09;100.00;98086.28;4969665;28;20391;-80
2021/11/13 09:26:40;;;;;;;24.83;14.95;;;;;;;8.92;100.00;98081.22;4966638;28;20050;-78
2021/11/13 09:29:08;;;;;;;28.08;15.88;;;;;;;8.87;100.00;98086.69;4953153;28;20050;-78
2021/11/13 09:31:46;;;;;;;29.27;15.02;;;;;;;9.13;100.00;98092.81;4971303;28;20026;-78
2021/11/13 09:34:18;;;;;;;26.98;14.40;;;;;;;9.41;100.00;98080.31;4983458;28;20007;-80
2021/11/13 09:36:44;;;;;;;35.55;15.32;;;;;;;9.71;100.00;98076.56;4981660;28;20031;-78
2021/11/13 09:39:12;;;;;;;27.02;15.80;;;;;;;9.74;100.00;98078.72;4969902;28;20491;-81
2021/11/13 09:41:41;;;;;;;28.95;16.23;;;;;;;10.11;100.00;98076.16;4986011;28;20010;-79
2021/11/13 09:44:08;;;;;;;28.38;15.93;;;;;;;10.30;100.00;98068.06;4964757;28;20047;-79
2021/11/13 09:46:35;;;;;;;28.98;16.45;;;;;;;10.18;100.00;98076.63;4974339;28;20602;-81
2021/11/13 09:49:00;;;;;;;32.08;17.42;;;;;;;9.92;100.00;98067.06;4979876;28;20059;-79
2021/11/13 09:51:27;;;;;;;27.55;16.45;;;;;;;9.96;100.00;98062.66;4986031;28;20042;-79
2021/11/13 09:53:57;;;;;;;27.27;16.25;;;;;;;9.95;100.00;98063.75;4986555;28;20043;-77
2021/11/13 09:56:23;;;;;;;29.00;17.20;;;;;;;10.04;100.00;98062.84;4987697;28;20039;-78
2021/11/13 09:58:50;;;;;;;30.30;16.10;;;;;;;10.16;100.00;98052.34;4981545;28;20034;-80
2021/11/13 10:01:16;;;;;;;28.02;16.58;;;;;;;10.10;100.00;98052.66;4984324;28;20037;-79
2021/11/13 10:03:43;;;;;;;27.92;16.50;;;;;;;10.17;100.00;98055.91;4984215;28;20050;-81
2021/11/13 10:06:13;;;;;;;30.25;16.30;;;;;;;10.58;100.00;98053.50;4983084;28;20051;-80
2021/11/13 10:08:41;;;;;;;28.65;15.23;;;;;;;10.73;99.54;98056.84;4972755;28;20046;-79
2021/11/13 10:11:09;;;;;;;34.67;16.98;;;;;;;10.73;99.79;98040.44;4980090;28;20018;-80
2021/11/13 10:13:41;;;;;;;30.10;16.00;;;;;;;10.95;99.59;98048.06;4978346;28;20035;-78
2021/11/13 10:16:14;;;;;;;40.80;17.05;;;;;;;10.93;97.84;98047.53;4959644;28;20063;-80
2021/11/13 10:18:49;;;;;;;25.27;14.80;;;;;;;10.84;98.41;98040.31;4982045;28;20067;-80
2021/11/13 10:21:24;;;;;;;35.95;18.05;;;;;;;10.72;99.50;98032.50;4968261;28;20027;-79
2021/11/13 10:23:56;;;;;;;29.48;16.15;;;;;;;10.72;99.68;98033.31;4967393;28;20046;-79
2021/11/13 10:26:35;;;;;;;30.38;17.35;;;;;;;10.67;100.00;98030.69;4961113;28;20537;-80
2021/11/13 10:29:03;;;;;;;66.82;37.08;;;;;;;10.60;100.00;98030.22;4966572;28;20043;-80
2021/11/13 10:31:34;;;;;;;28.02;15.73;;;;;;;10.27;100.00;98025.72;4968573;28;20038;-80
2021/11/13 10:34:07;;;;;;;31.73;16.23;;;;;;;9.68;100.00;98026.84;4944090;28;20400;-80
2021/11/13 10:36:38;;;;;;;32.45;18.45;;;;;;;9.81;100.00;98027.25;4972384;28;20035;-80
2021/11/13 10:39:23;;;;;;;38.20;19.35;;;;;;;9.84;100.00;98021.22;4962094;28;20039;-79
2021/11/13 10:41:51;;;;;;;34.55;18.08;;;;;;;9.96;100.00;98027.91;4961965;28;20043;-79
2021/11/13 10:44:23;;;;;;;30.48;18.58;;;;;;;9.97;100.00;98020.53;4964689;28;20026;-78
2021/11/13 10:46:49;;;;;;;30.92;18.75;;;;;;;10.09;100.00;98013.56;4964406;28;20031;-79
2021/11/13 10:49:15;;;;;;;29.55;16.67;;;;;;;10.03;100.00;98009.28;4980481;28;20162;-80
2021/11/13 10:51:49;;;;;;;31.90;16.73;;;;;;;10.04;100.00;98004.63;4978285;28;20042;-78
2021/11/13 10:54:16;;;;;;;30.33;18.42;;;;;;;10.02;100.00;98010.38;4970949;28;20058;-79
2021/11/13 10:56:51;;;;;;;31.73;18.48;;;;;;;10.00;100.00;98011.75;4962341;28;20034;-78
2021/11/13 10:59:22;;;;;;;31.47;19.10;;;;;;;10.08;100.00;98011.97;4969624;28;20089;-79
2021/11/13 11:01:48;;;;;;;35.15;18.73;;;;;;;10.10;100.00;98008.94;4975473;28;20041;-79
2021/11/13 11:04:19;;;;;;;38.67;21.02;;;;;;;10.02;100.00;98012.31;4974072;28;20035;-78
2021/11/13 11:06:47;;;;;;;37.15;19.02;;;;;;;9.82;100.00;97996.13;4975815;28;20047;-79
2021/11/13 11:09:19;;;;;;;38.72;19.75;;;;;;;9.85;100.00;97996.38;4950473;28;20039;-79
2021/11/13 11:11:44;;;;;;;32.55;19.17;;;;;;;10.02;100.00;97995.91;4951704;28;20039;-80
2021/11/13 11:14:14;;;;;;;36.30;19.88;;;;;;;10.04;100.00;97994.50;4955440;28;20042;-79
2021/11/13 11:16:47;;;;;;;36.80;18.73;;;;;;;10.11;100.00;97985.97;4957955;29;20054;-79
2021/11/13 11:19:24;;;;;;;46.05;20.55;;;;;;;10.25;100.00;97995.09;4954468;29;20507;-78